< < Back
Terminal Aerodrome Forecast


Current Version              Previous Versions:   1  2  3  4  5  6  7  8  9  

Terminal Aerodrome Forecast

123
FTUS44 KBMX 171740
TAFBHM
TAF
KBHM 171740Z 1718/1818 05005KT 4SM -RA BKN008 OVC012
     FM180500 03003KT 4SM BR OVC005
     FM181600 08004KT P6SM OVC015=

Latest METAR

911
SAUS70 KWBC 181900 RRE
MTRBHM
METAR KBHM 181853Z 20006KT 10SM OVC030 21/17 A2997 RMK AO2 SLP145
T02110172


USA.gov is the U.S. government's official web portal to all federal, state and local government web resources and services.